createdAt,value
2023-01-19T05:26:05.798Z,3.00
2023-01-19T05:29:08.503Z,2.89
2023-01-19T05:32:11.306Z,2.95
2023-01-19T05:35:15.414Z,3.06
2023-01-19T05:38:29.344Z,3.07
2023-01-19T05:41:36.629Z,3.08
2023-01-19T05:44:39.240Z,2.92
2023-01-19T05:47:41.834Z,2.88
2023-01-19T05:50:44.838Z,2.98
2023-01-19T05:53:48.453Z,2.88
2023-01-19T05:56:51.329Z,2.84
2023-01-19T05:59:54.152Z,2.76
2023-01-19T06:02:56.888Z,2.84
2023-01-19T06:06:00.843Z,3.05
2023-01-19T06:09:03.650Z,2.76
2023-01-19T06:12:07.920Z,2.83
2023-01-19T06:15:11.223Z,2.77
2023-01-19T06:18:16.879Z,2.86
2023-01-19T06:21:19.629Z,2.91
2023-01-19T06:24:23.324Z,3.02
2023-01-19T06:27:26.494Z,3.01
2023-01-19T06:30:29.407Z,3.15
2023-01-19T06:33:32.076Z,3.21
2023-01-19T06:36:35.203Z,2.98
2023-01-19T06:39:41.277Z,3.06
2023-01-19T06:42:43.870Z,3.03
2023-01-19T06:45:46.956Z,3.22
2023-01-19T06:48:49.543Z,2.97
2023-01-19T06:51:52.483Z,3.08
2023-01-19T06:54:55.454Z,3.19
2023-01-19T06:57:59.657Z,3.18
2023-01-19T07:01:03.819Z,3.22
2023-01-19T07:04:06.427Z,3.43
2023-01-19T07:07:09.055Z,3.50
2023-01-19T07:10:12.485Z,3.50
2023-01-19T07:13:15.595Z,3.66
2023-01-19T07:16:18.222Z,3.50
2023-01-19T07:19:20.787Z,3.50
2023-01-19T07:22:23.348Z,3.40
2023-01-19T07:25:26.642Z,3.43
2023-01-19T07:28:30.017Z,3.50
2023-01-19T07:31:33.392Z,3.62
2023-01-19T07:34:37.188Z,3.73
2023-01-19T07:37:39.842Z,3.89
2023-01-19T07:40:42.460Z,3.67
2023-01-19T07:43:45.001Z,3.56
2023-01-19T07:46:47.654Z,3.74
2023-01-19T07:49:50.247Z,3.77
2023-01-19T07:52:53.757Z,3.92
2023-01-19T07:55:56.833Z,3.73
2023-01-19T07:58:59.385Z,3.83
2023-01-19T08:02:02.141Z,3.76
2023-01-19T08:05:04.992Z,3.84
2023-01-19T08:08:08.093Z,3.79
2023-01-19T08:11:11.619Z,3.71
2023-01-19T08:14:14.263Z,3.66
2023-01-19T08:17:17.391Z,3.69
2023-01-19T08:20:19.977Z,3.76
2023-01-19T08:23:22.567Z,3.85
2023-01-19T08:26:32.290Z,3.95
2023-01-19T08:29:35.179Z,3.96
2023-01-19T08:32:37.772Z,3.99
2023-01-19T08:35:41.822Z,4.08
2023-01-19T08:38:49.855Z,4.07
2023-01-19T08:41:53.709Z,4.06
2023-01-19T08:44:58.312Z,4.07
2023-01-19T08:48:01.698Z,4.02
2023-01-19T08:51:04.691Z,4.08
2023-01-19T08:54:07.528Z,4.05
2023-01-19T08:57:10.254Z,4.13
2023-01-19T09:00:14.270Z,4.20
2023-01-19T09:03:17.434Z,4.09
2023-01-19T09:06:20.112Z,4.09
2023-01-19T09:09:22.684Z,4.27
2023-01-19T09:12:25.649Z,4.30
2023-01-19T09:15:28.305Z,4.14
2023-01-19T09:18:31.030Z,4.19
2023-01-19T09:21:33.634Z,4.23
2023-01-19T09:24:36.905Z,4.46
2023-01-19T09:27:39.457Z,4.30
2023-01-19T09:30:42.617Z,4.40
2023-01-19T09:33:45.338Z,4.38
2023-01-19T09:36:47.916Z,4.56
2023-01-19T09:39:50.530Z,4.41
2023-01-19T09:43:05.218Z,4.33
2023-01-19T09:46:39.179Z,4.36
2023-01-19T09:49:46.176Z,4.57
2023-01-19T09:52:56.358Z,4.63
2023-01-19T09:55:59.005Z,4.42
2023-01-19T09:59:01.971Z,4.59
2023-01-19T10:02:25.837Z,4.39
2023-01-19T10:05:40.080Z,4.50
2023-01-19T10:08:54.260Z,4.61
2023-01-19T10:12:17.949Z,4.60
2023-01-19T10:15:55.309Z,4.60
2023-01-19T10:19:32.866Z,4.70
2023-01-19T10:22:35.862Z,4.62
2023-01-19T10:25:38.868Z,4.54
2023-01-19T10:28:41.475Z,4.54
2023-01-19T10:31:44.048Z,4.73
2023-01-19T10:34:47.533Z,4.83
2023-01-19T10:37:51.056Z,4.85
2023-01-19T10:41:06.826Z,4.81
2023-01-19T10:44:10.965Z,4.73
2023-01-19T10:47:17.978Z,4.64
2023-01-19T10:50:31.760Z,4.89
2023-01-19T10:53:34.391Z,4.79
2023-01-19T10:56:37.534Z,4.68
2023-01-19T10:59:52.162Z,4.62
2023-01-19T11:02:54.972Z,4.55
2023-01-19T11:06:25.098Z,4.55
2023-01-19T11:09:27.746Z,4.52
2023-01-19T11:12:30.327Z,4.56
2023-01-19T11:15:48.498Z,4.43
2023-01-19T11:18:52.235Z,4.23
2023-01-19T11:22:10.892Z,4.45
2023-01-19T11:25:28.201Z,4.26
2023-01-19T11:28:33.451Z,4.23
2023-01-19T11:31:35.958Z,4.25
2023-01-19T11:34:39.645Z,4.40
2023-01-19T11:37:43.339Z,4.43
2023-01-19T11:40:56.911Z,4.46
2023-01-19T11:44:06.583Z,4.23
2023-01-19T11:47:26.858Z,4.06
2023-01-19T11:50:35.725Z,4.06
2023-01-19T11:53:38.517Z,3.84
2023-01-19T11:56:41.108Z,3.89
2023-01-19T11:59:44.483Z,3.94
2023-01-19T12:02:47.056Z,3.96
2023-01-19T12:05:53.023Z,3.77
2023-01-19T12:09:10.742Z,3.73
2023-01-19T12:12:30.260Z,3.68
2023-01-19T12:15:44.822Z,3.79
2023-01-19T12:18:51.419Z,3.63
2023-01-19T12:21:54.023Z,3.80
2023-01-19T12:25:01.557Z,3.88
2023-01-19T12:28:04.457Z,3.62
2023-01-19T12:31:08.490Z,3.74
2023-01-19T12:34:31.524Z,3.55
2023-01-19T12:37:42.538Z,3.72
2023-01-19T12:40:46.170Z,3.93
2023-01-19T12:44:09.230Z,3.86
2023-01-19T12:47:13.195Z,3.94
2023-01-19T12:50:17.518Z,3.75
2023-01-19T12:53:20.576Z,3.68
2023-01-19T12:56:34.046Z,3.90
2023-01-19T12:59:37.026Z,3.87
2023-01-19T13:02:42.626Z,3.73
2023-01-19T13:05:45.150Z,3.85
2023-01-19T13:09:00.463Z,4.06
2023-01-19T13:12:14.936Z,4.25
2023-01-19T13:15:28.679Z,3.85
2023-01-19T13:18:32.171Z,3.77
2023-01-19T13:21:39.886Z,3.95
2023-01-19T13:25:05.705Z,3.93
2023-01-19T13:28:09.308Z,3.77
2023-01-19T13:31:12.549Z,4.03
2023-01-19T13:34:25.745Z,3.89
2023-01-19T13:37:36.948Z,3.91
2023-01-19T13:40:39.778Z,4.08
2023-01-19T13:43:42.293Z,4.14
2023-01-19T13:46:45.383Z,4.23
2023-01-19T13:49:48.679Z,4.23
2023-01-19T13:52:54.045Z,4.13
2023-01-19T13:56:07.585Z,3.92
2023-01-19T13:59:13.817Z,3.80
2023-01-19T14:02:16.513Z,3.81
2023-01-19T14:05:24.541Z,3.72
2023-01-19T14:08:27.206Z,3.85
2023-01-19T14:11:29.770Z,3.79
2023-01-19T14:14:34.779Z,4.03
2023-01-19T14:17:37.405Z,4.03
2023-01-19T14:20:40.179Z,3.88
2023-01-19T14:23:45.735Z,3.89
2023-01-19T14:26:52.986Z,3.76
2023-01-19T14:29:55.546Z,3.51
2023-01-19T14:32:58.132Z,3.74
2023-01-19T14:36:17.895Z,3.80
2023-01-19T14:39:23.507Z,3.78
2023-01-19T14:42:33.735Z,3.70
2023-01-19T14:45:43.009Z,3.71
2023-01-19T14:48:49.581Z,3.76
2023-01-19T14:51:52.182Z,3.74
2023-01-19T14:54:55.114Z,3.56
2023-01-19T14:57:57.775Z,3.67
2023-01-19T15:01:00.497Z,3.67
2023-01-19T15:04:03.694Z,3.61
2023-01-19T15:07:06.659Z,3.63
2023-01-19T15:10:18.783Z,3.67
2023-01-19T15:13:22.297Z,3.66
2023-01-19T15:16:25.096Z,3.76
2023-01-19T15:19:27.677Z,3.75
2023-01-19T15:22:30.261Z,3.60
2023-01-19T15:25:32.801Z,3.63
2023-01-19T15:28:35.363Z,3.63
2023-01-19T15:31:38.512Z,3.53
2023-01-19T15:34:41.704Z,3.69
2023-01-19T15:37:44.310Z,3.59
2023-01-19T15:40:51.230Z,3.58
2023-01-19T15:43:54.113Z,3.53
2023-01-19T15:46:57.611Z,3.41
2023-01-19T15:50:00.341Z,3.39
2023-01-19T15:53:03.111Z,3.38
2023-01-19T15:56:06.004Z,3.51
2023-01-19T15:59:08.788Z,3.44
2023-01-19T16:02:11.613Z,3.44
2023-01-19T16:05:14.348Z,3.45
2023-01-19T16:08:17.192Z,3.48
2023-01-19T16:11:19.909Z,3.49
2023-01-19T16:14:22.658Z,3.40
2023-01-19T16:17:25.295Z,3.42
2023-01-19T16:20:27.992Z,3.28
2023-01-19T16:23:30.587Z,3.43
